sensor_id;sensor_type;location;lat;lon;timestamp;temperature;humidity
70726;DHT22;58304;53.104;6.022;2022-10-26T00:00:23;11.00;99.90
70726;DHT22;58304;53.104;6.022;2022-10-26T00:02:48;10.90;99.90
70726;DHT22;58304;53.104;6.022;2022-10-26T00:05:14;10.90;99.90
70726;DHT22;58304;53.104;6.022;2022-10-26T00:07:40;10.90;99.90
70726;DHT22;58304;53.104;6.022;2022-10-26T00:10:05;10.90;99.90
70726;DHT22;58304;53.104;6.022;2022-10-26T00:12:31;10.90;99.90
70726;DHT22;58304;53.104;6.022;2022-10-26T00:14:57;10.90;99.90
70726;DHT22;58304;53.104;6.022;2022-10-26T00:17:22;10.80;99.90
70726;DHT22;58304;53.104;6.022;2022-10-26T00:19:48;10.80;99.90
70726;DHT22;58304;53.104;6.022;2022-10-26T00:22:14;10.90;99.90
70726;DHT22;58304;53.104;6.022;2022-10-26T00:24:39;10.80;99.90
70726;DHT22;58304;53.104;6.022;2022-10-26T00:27:05;10.70;99.90
70726;DHT22;58304;53.104;6.022;2022-10-26T00:29:30;10.70;99.90
70726;DHT22;58304;53.104;6.022;2022-10-26T00:31:56;10.70;99.90
70726;DHT22;58304;53.104;6.022;2022-10-26T00:34:22;10.70;99.90
70726;DHT22;58304;53.104;6.022;2022-10-26T00:36:47;10.60;99.90
70726;DHT22;58304;53.104;6.022;2022-10-26T00:39:13;10.60;99.90
70726;DHT22;58304;53.104;6.022;2022-10-26T00:41:39;10.60;99.90
70726;DHT22;58304;53.104;6.022;2022-10-26T00:49:55;10.50;99.90
70726;DHT22;58304;53.104;6.022;2022-10-26T00:52:22;10.50;99.90
70726;DHT22;58304;53.104;6.022;2022-10-26T00:54:48;10.50;99.90
70726;DHT22;58304;53.104;6.022;2022-10-26T00:57:15;10.40;99.90
70726;DHT22;58304;53.104;6.022;2022-10-26T00:59:42;10.40;99.90
70726;DHT22;58304;53.104;6.022;2022-10-26T01:02:08;10.30;99.90
70726;DHT22;58304;53.104;6.022;2022-10-26T01:04:34;10.30;99.90
70726;DHT22;58304;53.104;6.022;2022-10-26T01:07:01;10.30;99.90
70726;DHT22;58304;53.104;6.022;2022-10-26T01:09:28;10.20;99.90
70726;DHT22;58304;53.104;6.022;2022-10-26T01:11:53;10.20;99.90
70726;DHT22;58304;53.104;6.022;2022-10-26T01:14:19;10.10;99.90
70726;DHT22;58304;53.104;6.022;2022-10-26T01:25:00;10.10;99.90
70726;DHT22;58304;53.104;6.022;2022-10-26T01:27:31;10.00;99.90
70726;DHT22;58304;53.104;6.022;2022-10-26T01:32:51;10.00;99.90
70726;DHT22;58304;53.104;6.022;2022-10-26T01:35:33;10.00;99.90
70726;DHT22;58304;53.104;6.022;2022-10-26T01:38:03;10.00;99.90
70726;DHT22;58304;53.104;6.022;2022-10-26T01:40:37;10.00;99.90
70726;DHT22;58304;53.104;6.022;2022-10-26T01:43:06;10.00;99.90
70726;DHT22;58304;53.104;6.022;2022-10-26T01:45:33;10.00;99.90
70726;DHT22;58304;53.104;6.022;2022-10-26T01:48:01;10.00;99.90
70726;DHT22;58304;53.104;6.022;2022-10-26T01:50:28;10.10;99.90
70726;DHT22;58304;53.104;6.022;2022-10-26T01:52:55;10.00;99.90
70726;DHT22;58304;53.104;6.022;2022-10-26T01:55:44;10.00;99.90
70726;DHT22;58304;53.104;6.022;2022-10-26T02:01:28;10.10;99.90
70726;DHT22;58304;53.104;6.022;2022-10-26T02:12:18;10.20;99.90
70726;DHT22;58304;53.104;6.022;2022-10-26T02:15:14;10.20;99.90
70726;DHT22;58304;53.104;6.022;2022-10-26T02:20:15;10.20;99.90
70726;DHT22;58304;53.104;6.022;2022-10-26T02:22:45;10.30;99.90
70726;DHT22;58304;53.104;6.022;2022-10-26T02:25:22;10.20;99.90
70726;DHT22;58304;53.104;6.022;2022-10-26T02:27:54;10.20;99.90
70726;DHT22;58304;53.104;6.022;2022-10-26T02:30:20;10.20;99.90
70726;DHT22;58304;53.104;6.022;2022-10-26T02:32:51;10.20;99.90
70726;DHT22;58304;53.104;6.022;2022-10-26T02:35:21;10.10;99.90
70726;DHT22;58304;53.104;6.022;2022-10-26T02:37:49;10.10;99.90
70726;DHT22;58304;53.104;6.022;2022-10-26T02:40:20;10.10;99.90
70726;DHT22;58304;53.104;6.022;2022-10-26T02:42:46;10.10;99.90
70726;DHT22;58304;53.104;6.022;2022-10-26T02:45:18;10.10;99.90
70726;DHT22;58304;53.104;6.022;2022-10-26T02:47:44;10.00;99.90
70726;DHT22;58304;53.104;6.022;2022-10-26T02:50:10;10.10;99.90
70726;DHT22;58304;53.104;6.022;2022-10-26T02:52:50;10.00;99.90
70726;DHT22;58304;53.104;6.022;2022-10-26T02:55:29;10.00;99.90
70726;DHT22;58304;53.104;6.022;2022-10-26T02:58:03;10.00;99.90
70726;DHT22;58304;53.104;6.022;2022-10-26T03:00:31;10.00;99.90
70726;DHT22;58304;53.104;6.022;2022-10-26T03:02:58;10.00;99.90
70726;DHT22;58304;53.104;6.022;2022-10-26T03:05:28;10.00;99.90
70726;DHT22;58304;53.104;6.022;2022-10-26T03:07:55;10.00;99.90
70726;DHT22;58304;53.104;6.022;2022-10-26T03:10:21;10.00;99.90
70726;DHT22;58304;53.104;6.022;2022-10-26T03:12:47;10.00;99.90
70726;DHT22;58304;53.104;6.022;2022-10-26T03:15:13;10.00;99.90
70726;DHT22;58304;53.104;6.022;2022-10-26T03:17:39;10.00;99.90
70726;DHT22;58304;53.104;6.022;2022-10-26T03:20:06;10.00;99.90
70726;DHT22;58304;53.104;6.022;2022-10-26T03:22:32;10.10;99.90
70726;DHT22;58304;53.104;6.022;2022-10-26T03:24:57;10.10;99.90
70726;DHT22;58304;53.104;6.022;2022-10-26T03:27:23;10.10;99.90
70726;DHT22;58304;53.104;6.022;2022-10-26T03:29:48;10.10;99.90
70726;DHT22;58304;53.104;6.022;2022-10-26T03:32:14;10.20;99.90
70726;DHT22;58304;53.104;6.022;2022-10-26T03:34:39;10.20;99.90
70726;DHT22;58304;53.104;6.022;2022-10-26T03:37:05;10.20;99.90
70726;DHT22;58304;53.104;6.022;2022-10-26T03:39:30;10.10;99.90
70726;DHT22;58304;53.104;6.022;2022-10-26T03:41:57;10.10;99.90
70726;DHT22;58304;53.104;6.022;2022-10-26T03:44:24;10.10;99.90
70726;DHT22;58304;53.104;6.022;2022-10-26T03:46:49;10.10;99.90
70726;DHT22;58304;53.104;6.022;2022-10-26T03:49:15;10.00;99.90
70726;DHT22;58304;53.104;6.022;2022-10-26T03:51:40;10.00;99.90
70726;DHT22;58304;53.104;6.022;2022-10-26T03:54:06;10.10;99.90
70726;DHT22;58304;53.104;6.022;2022-10-26T03:56:31;10.00;99.90
70726;DHT22;58304;53.104;6.022;2022-10-26T03:58:57;10.00;99.90
70726;DHT22;58304;53.104;6.022;2022-10-26T04:01:23;10.00;99.90
70726;DHT22;58304;53.104;6.022;2022-10-26T04:03:48;10.10;99.90
70726;DHT22;58304;53.104;6.022;2022-10-26T04:06:14;10.10;99.90
70726;DHT22;58304;53.104;6.022;2022-10-26T04:08:39;10.10;99.90
70726;DHT22;58304;53.104;6.022;2022-10-26T04:11:05;10.10;99.90
70726;DHT22;58304;53.104;6.022;2022-10-26T04:13:30;10.10;99.90
70726;DHT22;58304;53.104;6.022;2022-10-26T04:15:56;10.20;99.90
70726;DHT22;58304;53.104;6.022;2022-10-26T04:18:22;10.20;99.90
70726;DHT22;58304;53.104;6.022;2022-10-26T04:20:47;10.20;99.90
70726;DHT22;58304;53.104;6.022;2022-10-26T04:23:14;10.20;99.90
70726;DHT22;58304;53.104;6.022;2022-10-26T04:25:40;10.40;99.90
70726;DHT22;58304;53.104;6.022;2022-10-26T04:28:06;10.30;99.90
70726;DHT22;58304;53.104;6.022;2022-10-26T04:30:32;10.30;99.90
70726;DHT22;58304;53.104;6.022;2022-10-26T04:32:58;10.30;99.90
70726;DHT22;58304;53.104;6.022;2022-10-26T04:35:24;10.30;99.90
70726;DHT22;58304;53.104;6.022;2022-10-26T04:37:50;10.30;99.90
70726;DHT22;58304;53.104;6.022;2022-10-26T04:40:16;10.40;99.90
70726;DHT22;58304;53.104;6.022;2022-10-26T04:42:46;10.40;99.90
70726;DHT22;58304;53.104;6.022;2022-10-26T04:45:14;10.40;99.90
70726;DHT22;58304;53.104;6.022;2022-10-26T04:47:40;10.40;99.90
70726;DHT22;58304;53.104;6.022;2022-10-26T04:50:07;10.50;99.90
70726;DHT22;58304;53.104;6.022;2022-10-26T04:52:33;10.50;99.90
70726;DHT22;58304;53.104;6.022;2022-10-26T04:54:59;10.50;99.90
70726;DHT22;58304;53.104;6.022;2022-10-26T04:57:24;10.60;99.90
70726;DHT22;58304;53.104;6.022;2022-10-26T04:59:50;10.60;99.90
70726;DHT22;58304;53.104;6.022;2022-10-26T05:02:15;10.60;99.90
70726;DHT22;58304;53.104;6.022;2022-10-26T05:04:41;10.60;99.90
70726;DHT22;58304;53.104;6.022;2022-10-26T05:07:07;10.60;99.90
70726;DHT22;58304;53.104;6.022;2022-10-26T05:09:32;10.60;99.90
70726;DHT22;58304;53.104;6.022;2022-10-26T05:11:58;10.60;99.90
70726;DHT22;58304;53.104;6.022;2022-10-26T05:14:23;10.60;99.90
70726;DHT22;58304;53.104;6.022;2022-10-26T05:16:52;10.70;99.90
70726;DHT22;58304;53.104;6.022;2022-10-26T05:19:20;10.60;99.90
70726;DHT22;58304;53.104;6.022;2022-10-26T05:21:45;10.70;99.90
70726;DHT22;58304;53.104;6.022;2022-10-26T05:24:11;10.70;99.90
70726;DHT22;58304;53.104;6.022;2022-10-26T05:26:37;10.70;99.90
70726;DHT22;58304;53.104;6.022;2022-10-26T05:29:02;10.80;99.90
70726;DHT22;58304;53.104;6.022;2022-10-26T05:31:28;10.70;99.90
70726;DHT22;58304;53.104;6.022;2022-10-26T05:33:53;10.70;99.90
70726;DHT22;58304;53.104;6.022;2022-10-26T05:36:19;10.70;99.90
70726;DHT22;58304;53.104;6.022;2022-10-26T05:38:45;10.70;99.90
70726;DHT22;58304;53.104;6.022;2022-10-26T05:41:11;10.80;99.90
70726;DHT22;58304;53.104;6.022;2022-10-26T05:43:37;10.70;99.90
70726;DHT22;58304;53.104;6.022;2022-10-26T05:46:03;10.80;99.90
70726;DHT22;58304;53.104;6.022;2022-10-26T05:48:29;10.70;99.90
70726;DHT22;58304;53.104;6.022;2022-10-26T05:50:58;10.70;99.90
70726;DHT22;58304;53.104;6.022;2022-10-26T05:53:25;10.70;99.90
70726;DHT22;58304;53.104;6.022;2022-10-26T05:55:50;10.70;99.90
70726;DHT22;58304;53.104;6.022;2022-10-26T05:58:16;10.70;99.90
70726;DHT22;58304;53.104;6.022;2022-10-26T06:06:06;10.80;99.90
70726;DHT22;58304;53.104;6.022;2022-10-26T06:08:32;10.80;99.90
70726;DHT22;58304;53.104;6.022;2022-10-26T06:10:59;10.80;99.90
70726;DHT22;58304;53.104;6.022;2022-10-26T06:13:25;10.90;99.90
70726;DHT22;58304;53.104;6.022;2022-10-26T06:16:28;10.90;99.90
70726;DHT22;58304;53.104;6.022;2022-10-26T06:24:12;10.90;99.90
70726;DHT22;58304;53.104;6.022;2022-10-26T06:27:00;10.90;99.90
70726;DHT22;58304;53.104;6.022;2022-10-26T06:30:02;11.00;99.90
70726;DHT22;58304;53.104;6.022;2022-10-26T06:32:29;10.90;99.90
70726;DHT22;58304;53.104;6.022;2022-10-26T06:37:43;10.90;99.90
70726;DHT22;58304;53.104;6.022;2022-10-26T06:40:13;10.90;99.90
70726;DHT22;58304;53.104;6.022;2022-10-26T06:42:40;10.90;99.90
70726;DHT22;58304;53.104;6.022;2022-10-26T06:45:10;10.90;99.90
70726;DHT22;58304;53.104;6.022;2022-10-26T06:55:43;10.90;99.90
70726;DHT22;58304;53.104;6.022;2022-10-26T06:58:17;11.00;99.90
70726;DHT22;58304;53.104;6.022;2022-10-26T07:00:44;10.90;99.90
70726;DHT22;58304;53.104;6.022;2022-10-26T07:03:10;11.10;99.90
70726;DHT22;58304;53.104;6.022;2022-10-26T07:05:36;11.10;99.90
70726;DHT22;58304;53.104;6.022;2022-10-26T07:08:01;11.20;99.90
70726;DHT22;58304;53.104;6.022;2022-10-26T07:10:27;11.30;99.90
70726;DHT22;58304;53.104;6.022;2022-10-26T07:12:52;11.40;99.90
70726;DHT22;58304;53.104;6.022;2022-10-26T07:15:19;11.40;99.90
70726;DHT22;58304;53.104;6.022;2022-10-26T07:17:46;11.50;99.90
70726;DHT22;58304;53.104;6.022;2022-10-26T07:20:13;11.50;99.90
70726;DHT22;58304;53.104;6.022;2022-10-26T07:22:39;11.60;99.90
70726;DHT22;58304;53.104;6.022;2022-10-26T07:25:05;11.60;99.90
70726;DHT22;58304;53.104;6.022;2022-10-26T07:27:32;11.70;99.90
70726;DHT22;58304;53.104;6.022;2022-10-26T07:29:58;11.80;99.90
70726;DHT22;58304;53.104;6.022;2022-10-26T07:32:23;11.80;99.90
70726;DHT22;58304;53.104;6.022;2022-10-26T07:34:49;11.80;99.90
70726;DHT22;58304;53.104;6.022;2022-10-26T07:37:14;11.90;99.90
70726;DHT22;58304;53.104;6.022;2022-10-26T07:39:40;11.90;99.90
70726;DHT22;58304;53.104;6.022;2022-10-26T07:42:05;12.00;99.90
70726;DHT22;58304;53.104;6.022;2022-10-26T07:44:31;12.00;99.90
70726;DHT22;58304;53.104;6.022;2022-10-26T07:46:57;12.20;99.90
70726;DHT22;58304;53.104;6.022;2022-10-26T07:49:22;12.20;99.90
70726;DHT22;58304;53.104;6.022;2022-10-26T07:51:48;12.20;99.90
70726;DHT22;58304;53.104;6.022;2022-10-26T07:54:14;12.30;99.90
70726;DHT22;58304;53.104;6.022;2022-10-26T07:56:39;12.50;99.90
70726;DHT22;58304;53.104;6.022;2022-10-26T07:59:05;12.90;99.90
70726;DHT22;58304;53.104;6.022;2022-10-26T08:01:30;13.70;99.90
70726;DHT22;58304;53.104;6.022;2022-10-26T08:03:56;14.50;99.90
70726;DHT22;58304;53.104;6.022;2022-10-26T08:06:22;15.60;99.90
70726;DHT22;58304;53.104;6.022;2022-10-26T08:08:48;16.10;99.90
70726;DHT22;58304;53.104;6.022;2022-10-26T08:11:15;15.80;99.90
70726;DHT22;58304;53.104;6.022;2022-10-26T08:13:41;15.60;99.90
70726;DHT22;58304;53.104;6.022;2022-10-26T08:16:07;16.00;99.90
70726;DHT22;58304;53.104;6.022;2022-10-26T08:18:32;16.90;99.90
70726;DHT22;58304;53.104;6.022;2022-10-26T08:21:03;17.30;99.90
70726;DHT22;58304;53.104;6.022;2022-10-26T08:23:30;19.00;99.90
70726;DHT22;58304;53.104;6.022;2022-10-26T08:25:59;20.40;99.90
70726;DHT22;58304;53.104;6.022;2022-10-26T08:28:26;21.10;99.90
70726;DHT22;58304;53.104;6.022;2022-10-26T08:30:51;21.50;99.90
70726;DHT22;58304;53.104;6.022;2022-10-26T08:36:04;21.90;99.90
70726;DHT22;58304;53.104;6.022;2022-10-26T08:38:30;21.40;99.90
70726;DHT22;58304;53.104;6.022;2022-10-26T08:40:58;21.70;99.90
70726;DHT22;58304;53.104;6.022;2022-10-26T08:46:23;21.60;99.90
70726;DHT22;58304;53.104;6.022;2022-10-26T08:48:55;21.60;99.90
70726;DHT22;58304;53.104;6.022;2022-10-26T08:51:35;20.80;99.90
70726;DHT22;58304;53.104;6.022;2022-10-26T08:54:47;20.20;99.90
70726;DHT22;58304;53.104;6.022;2022-10-26T08:56:54;20.00;99.90
70726;DHT22;58304;53.104;6.022;2022-10-26T09:01:56;20.60;99.90
70726;DHT22;58304;53.104;6.022;2022-10-26T09:04:25;21.90;99.90
70726;DHT22;58304;53.104;6.022;2022-10-26T09:07:18;23.00;99.90
70726;DHT22;58304;53.104;6.022;2022-10-26T09:10:14;22.70;99.90
70726;DHT22;58304;53.104;6.022;2022-10-26T09:16:05;23.60;99.90
70726;DHT22;58304;53.104;6.022;2022-10-26T09:18:56;22.20;99.90
70726;DHT22;58304;53.104;6.022;2022-10-26T09:24:46;20.40;99.90
70726;DHT22;58304;53.104;6.022;2022-10-26T09:27:15;20.50;99.90
70726;DHT22;58304;53.104;6.022;2022-10-26T09:29:43;21.30;99.90
70726;DHT22;58304;53.104;6.022;2022-10-26T09:32:24;22.60;99.90
70726;DHT22;58304;53.104;6.022;2022-10-26T09:35:00;23.60;99.90
70726;DHT22;58304;53.104;6.022;2022-10-26T09:37:35;24.40;99.90
70726;DHT22;58304;53.104;6.022;2022-10-26T09:40:11;25.20;99.90
70726;DHT22;58304;53.104;6.022;2022-10-26T09:42:42;26.00;99.90
70726;DHT22;58304;53.104;6.022;2022-10-26T09:45:32;26.30;99.90
70726;DHT22;58304;53.104;6.022;2022-10-26T09:48:06;26.60;99.90
70726;DHT22;58304;53.104;6.022;2022-10-26T09:50:36;27.00;98.50
70726;DHT22;58304;53.104;6.022;2022-10-26T09:53:03;26.50;99.40
70726;DHT22;58304;53.104;6.022;2022-10-26T09:55:30;26.40;98.70
70726;DHT22;58304;53.104;6.022;2022-10-26T09:58:02;25.90;99.70
70726;DHT22;58304;53.104;6.022;2022-10-26T10:00:32;25.40;98.30
70726;DHT22;58304;53.104;6.022;2022-10-26T10:02:57;25.00;99.90
70726;DHT22;58304;53.104;6.022;2022-10-26T10:08:09;23.40;99.90
70726;DHT22;58304;53.104;6.022;2022-10-26T10:10:35;22.40;99.90
70726;DHT22;58304;53.104;6.022;2022-10-26T10:13:14;22.20;99.90
70726;DHT22;58304;53.104;6.022;2022-10-26T10:15:50;21.40;99.90
70726;DHT22;58304;53.104;6.022;2022-10-26T10:18:21;21.40;99.90
70726;DHT22;58304;53.104;6.022;2022-10-26T10:20:56;21.40;99.90
70726;DHT22;58304;53.104;6.022;2022-10-26T10:23:28;21.30;99.90
70726;DHT22;58304;53.104;6.022;2022-10-26T10:26:08;21.80;99.90
70726;DHT22;58304;53.104;6.022;2022-10-26T10:28:38;21.70;99.90
70726;DHT22;58304;53.104;6.022;2022-10-26T10:31:20;21.60;99.90
70726;DHT22;58304;53.104;6.022;2022-10-26T10:33:46;21.80;99.90
70726;DHT22;58304;53.104;6.022;2022-10-26T10:36:19;21.50;99.90
70726;DHT22;58304;53.104;6.022;2022-10-26T10:38:47;21.50;99.90
70726;DHT22;58304;53.104;6.022;2022-10-26T10:41:34;21.60;99.90
70726;DHT22;58304;53.104;6.022;2022-10-26T10:44:19;21.40;99.90
70726;DHT22;58304;53.104;6.022;2022-10-26T10:46:47;21.20;99.90
70726;DHT22;58304;53.104;6.022;2022-10-26T10:49:25;21.10;99.90
70726;DHT22;58304;53.104;6.022;2022-10-26T10:51:52;21.40;99.90
70726;DHT22;58304;53.104;6.022;2022-10-26T10:57:06;22.00;99.90
70726;DHT22;58304;53.104;6.022;2022-10-26T10:59:38;22.40;99.90
70726;DHT22;58304;53.104;6.022;2022-10-26T11:08:03;22.20;99.90
70726;DHT22;58304;53.104;6.022;2022-10-26T11:10:51;22.20;99.90
70726;DHT22;58304;53.104;6.022;2022-10-26T11:13:23;22.10;99.90
70726;DHT22;58304;53.104;6.022;2022-10-26T11:15:54;22.00;99.90
70726;DHT22;58304;53.104;6.022;2022-10-26T11:18:28;22.30;99.90
70726;DHT22;58304;53.104;6.022;2022-10-26T11:21:06;22.50;99.90
70726;DHT22;58304;53.104;6.022;2022-10-26T11:23:42;22.80;99.90
70726;DHT22;58304;53.104;6.022;2022-10-26T11:26:14;23.10;99.90
70726;DHT22;58304;53.104;6.022;2022-10-26T11:28:58;23.20;99.90
70726;DHT22;58304;53.104;6.022;2022-10-26T11:31:37;23.20;99.90
70726;DHT22;58304;53.104;6.022;2022-10-26T11:34:28;23.00;99.90
70726;DHT22;58304;53.104;6.022;2022-10-26T11:37:02;23.30;99.90
70726;DHT22;58304;53.104;6.022;2022-10-26T11:39:43;23.50;99.90
70726;DHT22;58304;53.104;6.022;2022-10-26T11:42:45;23.60;99.90
70726;DHT22;58304;53.104;6.022;2022-10-26T11:45:25;23.50;99.90
70726;DHT22;58304;53.104;6.022;2022-10-26T11:48:11;23.50;99.90
70726;DHT22;58304;53.104;6.022;2022-10-26T11:50:42;23.60;99.90
70726;DHT22;58304;53.104;6.022;2022-10-26T11:53:18;23.50;99.90
70726;DHT22;58304;53.104;6.022;2022-10-26T11:55:51;23.50;99.90
70726;DHT22;58304;53.104;6.022;2022-10-26T11:58:22;23.50;99.90
70726;DHT22;58304;53.104;6.022;2022-10-26T12:00:52;23.40;99.90
70726;DHT22;58304;53.104;6.022;2022-10-26T12:03:26;23.20;99.90
70726;DHT22;58304;53.104;6.022;2022-10-26T12:05:53;23.30;99.90
70726;DHT22;58304;53.104;6.022;2022-10-26T12:08:28;23.30;99.90
70726;DHT22;58304;53.104;6.022;2022-10-26T12:13:57;22.80;99.90
70726;DHT22;58304;53.104;6.022;2022-10-26T12:16:45;22.40;99.90
70726;DHT22;58304;53.104;6.022;2022-10-26T12:19:20;22.20;99.90
70726;DHT22;58304;53.104;6.022;2022-10-26T12:21:48;22.10;99.90
70726;DHT22;58304;53.104;6.022;2022-10-26T12:24:26;22.10;99.90
70726;DHT22;58304;53.104;6.022;2022-10-26T12:26:57;21.90;99.90
70726;DHT22;58304;53.104;6.022;2022-10-26T12:29:30;21.90;99.90
70726;DHT22;58304;53.104;6.022;2022-10-26T12:31:57;21.80;99.90
70726;DHT22;58304;53.104;6.022;2022-10-26T12:35:26;21.90;99.90
70726;DHT22;58304;53.104;6.022;2022-10-26T12:37:32;22.10;99.90
70726;DHT22;58304;53.104;6.022;2022-10-26T12:42:57;22.00;99.90
70726;DHT22;58304;53.104;6.022;2022-10-26T12:45:44;22.10;99.90
70726;DHT22;58304;53.104;6.022;2022-10-26T12:48:22;22.30;99.90
70726;DHT22;58304;53.104;6.022;2022-10-26T12:50:51;22.40;99.90
70726;DHT22;58304;53.104;6.022;2022-10-26T12:53:19;22.40;99.90
70726;DHT22;58304;53.104;6.022;2022-10-26T13:06:39;22.50;99.90
70726;DHT22;58304;53.104;6.022;2022-10-26T13:09:16;22.60;99.90
70726;DHT22;58304;53.104;6.022;2022-10-26T13:11:51;22.70;99.90
70726;DHT22;58304;53.104;6.022;2022-10-26T13:15:17;22.80;99.90
70726;DHT22;58304;53.104;6.022;2022-10-26T13:17:27;22.60;99.90
70726;DHT22;58304;53.104;6.022;2022-10-26T13:19:55;22.40;99.90
70726;DHT22;58304;53.104;6.022;2022-10-26T13:22:23;22.30;99.90
70726;DHT22;58304;53.104;6.022;2022-10-26T13:25:00;22.10;99.90
70726;DHT22;58304;53.104;6.022;2022-10-26T13:30:19;21.80;99.90
70726;DHT22;58304;53.104;6.022;2022-10-26T13:32:55;21.60;99.90
70726;DHT22;58304;53.104;6.022;2022-10-26T13:35:23;21.30;99.90
70726;DHT22;58304;53.104;6.022;2022-10-26T13:37:50;21.20;99.90
70726;DHT22;58304;53.104;6.022;2022-10-26T13:40:23;21.10;99.90
70726;DHT22;58304;53.104;6.022;2022-10-26T13:42:56;20.90;99.90
70726;DHT22;58304;53.104;6.022;2022-10-26T13:45:28;20.80;99.90
70726;DHT22;58304;53.104;6.022;2022-10-26T13:48:19;20.80;99.90
70726;DHT22;58304;53.104;6.022;2022-10-26T13:50:51;20.80;99.90
70726;DHT22;58304;53.104;6.022;2022-10-26T13:56:34;20.80;99.90
70726;DHT22;58304;53.104;6.022;2022-10-26T13:59:09;21.00;99.90
70726;DHT22;58304;53.104;6.022;2022-10-26T14:01:35;21.20;99.90
70726;DHT22;58304;53.104;6.022;2022-10-26T14:04:14;21.40;99.90
70726;DHT22;58304;53.104;6.022;2022-10-26T14:06:49;21.60;99.90
70726;DHT22;58304;53.104;6.022;2022-10-26T14:09:16;21.80;99.90
70726;DHT22;58304;53.104;6.022;2022-10-26T14:11:52;21.80;99.90
70726;DHT22;58304;53.104;6.022;2022-10-26T14:14:29;21.80;99.90
70726;DHT22;58304;53.104;6.022;2022-10-26T14:16:57;21.60;99.90
70726;DHT22;58304;53.104;6.022;2022-10-26T14:19:34;21.40;99.90
70726;DHT22;58304;53.104;6.022;2022-10-26T14:22:00;21.10;99.90
70726;DHT22;58304;53.104;6.022;2022-10-26T14:24:32;21.00;99.90
70726;DHT22;58304;53.104;6.022;2022-10-26T14:26:58;21.00;99.90
70726;DHT22;58304;53.104;6.022;2022-10-26T14:31:59;20.80;99.90
70726;DHT22;58304;53.104;6.022;2022-10-26T14:34:24;20.60;99.90
70726;DHT22;58304;53.104;6.022;2022-10-26T14:36:57;20.50;99.90
70726;DHT22;58304;53.104;6.022;2022-10-26T14:39:36;20.40;99.90
70726;DHT22;58304;53.104;6.022;2022-10-26T14:42:28;20.30;99.90
70726;DHT22;58304;53.104;6.022;2022-10-26T14:44:56;20.20;99.90
70726;DHT22;58304;53.104;6.022;2022-10-26T14:47:27;20.00;99.90
70726;DHT22;58304;53.104;6.022;2022-10-26T14:49:53;20.00;99.90
70726;DHT22;58304;53.104;6.022;2022-10-26T14:52:25;19.90;99.90
70726;DHT22;58304;53.104;6.022;2022-10-26T14:55:00;19.80;99.90
70726;DHT22;58304;53.104;6.022;2022-10-26T14:57:37;19.70;99.90
70726;DHT22;58304;53.104;6.022;2022-10-26T15:00:21;19.60;99.90
70726;DHT22;58304;53.104;6.022;2022-10-26T15:02:48;19.50;99.90
70726;DHT22;58304;53.104;6.022;2022-10-26T15:05:26;19.40;99.90
70726;DHT22;58304;53.104;6.022;2022-10-26T15:07:56;19.30;99.90
70726;DHT22;58304;53.104;6.022;2022-10-26T15:10:44;19.30;99.90
70726;DHT22;58304;53.104;6.022;2022-10-26T15:13:29;19.20;99.90
70726;DHT22;58304;53.104;6.022;2022-10-26T15:16:17;19.20;99.90
70726;DHT22;58304;53.104;6.022;2022-10-26T15:18:46;19.10;99.90
70726;DHT22;58304;53.104;6.022;2022-10-26T15:21:34;19.10;99.90
70726;DHT22;58304;53.104;6.022;2022-10-26T15:24:00;18.90;99.90
70726;DHT22;58304;53.104;6.022;2022-10-26T15:26:27;18.90;99.90
70726;DHT22;58304;53.104;6.022;2022-10-26T15:28:53;18.80;99.90
70726;DHT22;58304;53.104;6.022;2022-10-26T15:36:24;18.70;99.90
70726;DHT22;58304;53.104;6.022;2022-10-26T15:38:51;18.70;99.90
70726;DHT22;58304;53.104;6.022;2022-10-26T15:41:31;18.60;99.90
70726;DHT22;58304;53.104;6.022;2022-10-26T15:43:59;18.50;99.90
70726;DHT22;58304;53.104;6.022;2022-10-26T15:46:29;18.50;99.90
70726;DHT22;58304;53.104;6.022;2022-10-26T15:48:57;18.30;99.90
70726;DHT22;58304;53.104;6.022;2022-10-26T15:51:24;18.30;99.90
70726;DHT22;58304;53.104;6.022;2022-10-26T15:53:49;18.30;99.90
70726;DHT22;58304;53.104;6.022;2022-10-26T15:56:21;18.30;99.90
70726;DHT22;58304;53.104;6.022;2022-10-26T15:58:48;18.30;99.90
70726;DHT22;58304;53.104;6.022;2022-10-26T16:01:21;18.20;99.90
70726;DHT22;58304;53.104;6.022;2022-10-26T16:03:48;18.20;99.90
70726;DHT22;58304;53.104;6.022;2022-10-26T16:06:27;18.10;99.90
70726;DHT22;58304;53.104;6.022;2022-10-26T16:08:56;18.00;99.90
70726;DHT22;58304;53.104;6.022;2022-10-26T16:11:22;18.00;99.90
70726;DHT22;58304;53.104;6.022;2022-10-26T16:13:48;18.00;99.90
70726;DHT22;58304;53.104;6.022;2022-10-26T16:16:18;17.90;99.90
70726;DHT22;58304;53.104;6.022;2022-10-26T16:18:45;17.90;99.90
70726;DHT22;58304;53.104;6.022;2022-10-26T16:21:16;17.80;99.90
70726;DHT22;58304;53.104;6.022;2022-10-26T16:23:45;17.80;99.90
70726;DHT22;58304;53.104;6.022;2022-10-26T16:26:11;17.80;99.90
70726;DHT22;58304;53.104;6.022;2022-10-26T16:28:37;17.70;99.90
70726;DHT22;58304;53.104;6.022;2022-10-26T16:31:05;17.60;99.90
70726;DHT22;58304;53.104;6.022;2022-10-26T16:33:32;17.50;99.90
70726;DHT22;58304;53.104;6.022;2022-10-26T16:35:59;17.50;99.90
70726;DHT22;58304;53.104;6.022;2022-10-26T16:38:25;17.40;99.90
70726;DHT22;58304;53.104;6.022;2022-10-26T16:41:05;17.30;99.90
70726;DHT22;58304;53.104;6.022;2022-10-26T16:43:51;17.40;99.90
70726;DHT22;58304;53.104;6.022;2022-10-26T16:46:19;17.20;99.90
70726;DHT22;58304;53.104;6.022;2022-10-26T16:48:46;17.00;99.90
70726;DHT22;58304;53.104;6.022;2022-10-26T16:51:17;17.00;99.90
70726;DHT22;58304;53.104;6.022;2022-10-26T16:53:45;16.90;99.90
70726;DHT22;58304;53.104;6.022;2022-10-26T16:56:13;16.80;99.90
70726;DHT22;58304;53.104;6.022;2022-10-26T16:58:39;16.80;99.90
70726;DHT22;58304;53.104;6.022;2022-10-26T17:01:06;16.80;99.90
70726;DHT22;58304;53.104;6.022;2022-10-26T17:03:33;16.80;99.90
70726;DHT22;58304;53.104;6.022;2022-10-26T17:06:04;16.80;99.90
70726;DHT22;58304;53.104;6.022;2022-10-26T17:08:32;16.80;99.90
70726;DHT22;58304;53.104;6.022;2022-10-26T17:11:12;16.70;99.90
70726;DHT22;58304;53.104;6.022;2022-10-26T17:13:39;16.70;99.90
70726;DHT22;58304;53.104;6.022;2022-10-26T17:16:08;16.60;99.90
70726;DHT22;58304;53.104;6.022;2022-10-26T17:18:34;16.60;99.90
70726;DHT22;58304;53.104;6.022;2022-10-26T17:21:00;16.50;99.90
70726;DHT22;58304;53.104;6.022;2022-10-26T17:23:25;16.40;99.90
70726;DHT22;58304;53.104;6.022;2022-10-26T17:25:51;16.30;99.90
70726;DHT22;58304;53.104;6.022;2022-10-26T17:28:17;16.40;99.90
70726;DHT22;58304;53.104;6.022;2022-10-26T17:30:42;16.30;99.90
70726;DHT22;58304;53.104;6.022;2022-10-26T17:33:09;16.30;99.90
70726;DHT22;58304;53.104;6.022;2022-10-26T17:35:35;16.20;99.90
70726;DHT22;58304;53.104;6.022;2022-10-26T17:38:00;16.20;99.90